KARB/ARB METAR and TAF weather

Enter ICAO airport designator
Station Type Date Time Source
KARB METAR 2021/10/20 05:53 UTC NOAA

KARB 200553Z AUTO 26003KT 8SM CLR 06/06 A3010 RMK AO2 SLP194 T00610056 10133 20061 50000


Station Type Date Time Source
KARB Decoded METAR 2021/10/20 05:53 UTC NOAA

ANN ARBOR MUNICIPAL AIRPORT, MI, United States (KARB) 42-13N 083-45W 251M
Oct 20, 2021 - 01:53 AM EDT / 2021.10.20 0553 UTC
Wind: from the W (260 degrees) at 3 MPH (3 KT):0
Visibility: 8 mile(s):0
Sky conditions: clear
Temperature: 43.0 F (6.1 C)
Dew Point: 42.1 F (5.6 C)
Relative Humidity: 96%
Pressure (altimeter): 30.1 in. Hg (1019 hPa)
Pressure tendency: 0.00 inches (0.0 hPa) higher than three hours ago
ob: KARB 200553Z AUTO 26003KT 8SM CLR 06/06 A3010 RMK AO2 SLP194 T00610056 10133 20061 50000
cycle: 6

Station Type Date Time Source
KARB TAF UTC NOAA

Error!

Example: see airport list